Time;durP1;ratioP1;P1;durP2;ratioP2;P2;SDS_P1;SDS_P2;PMS_P1;PMS_P2;Temp;Humidity;BMP_temperature;BMP_pressure;BME280_temperature;BME280_humidity;BME280_pressure;Samples;Min_cycle;Max_cycle;Signal;HPM_P1;HPM_P2
2021/01/04 00:00:20;;;;;;;;;;;;;;;20.04;56.98;101165.50;5116385;28;800;-64
2021/01/04 00:02:48;;;;;;;;;;;;;;;20.03;57.27;101148.56;5098143;28;1319;-59
2021/01/04 00:05:32;;;;;;;;;;;;;;;19.98;57.34;101150.78;5116219;28;825;-59
2021/01/04 00:08:13;;;;;;;;;;;;;;;19.97;57.11;101148.22;5117626;27;1619;-61
2021/01/04 00:10:57;;;;;;;;;;;;;;;19.92;57.25;101134.38;5136570;27;1135;-64
2021/01/04 00:13:23;;;;;;;;;;;;;;;19.94;56.94;101154.72;5137050;27;846;-63
2021/01/04 00:15:53;;;;;;;;;;;;;;;19.91;57.11;101165.69;5136685;27;737;-59
2021/01/04 00:18:54;;;;;;;;;;;;;;;19.88;56.83;101149.03;5136042;27;1584;-64
2021/01/04 00:21:34;;;;;;;;;;;;;;;19.90;57.15;101152.44;5066944;28;1562;-59
2021/01/04 00:24:10;;;;;;;;;;;;;;;19.85;56.71;101172.44;5091331;28;895;-64
2021/01/04 00:26:43;;;;;;;;;;;;;;;19.88;56.88;101159.75;5095539;28;813;-59
2021/01/04 00:29:09;;;;;;;;;;;;;;;19.86;56.67;101173.31;5095361;28;749;-63
2021/01/04 00:31:39;;;;;;;;;;;;;;;19.84;56.79;101170.75;5095127;28;1881;-59
2021/01/04 00:34:07;;;;;;;;;;;;;;;19.85;56.55;101176.97;5095427;28;770;-63
2021/01/04 00:36:34;;;;;;;;;;;;;;;19.81;56.49;101154.91;5131667;27;1534;-59
2021/01/04 00:39:20;;;;;;;;;;;;;;;19.80;56.71;101180.06;5136018;27;888;-59
2021/01/04 00:42:14;;;;;;;;;;;;;;;19.77;56.88;101179.44;5136351;27;753;-63
2021/01/04 00:44:46;;;;;;;;;;;;;;;19.80;56.44;101163.94;5122685;27;1354;-64
2021/01/04 00:47:34;;;;;;;;;;;;;;;19.77;56.34;101169.56;5135916;27;792;-59
2021/01/04 00:50:04;;;;;;;;;;;;;;;19.79;56.25;101156.84;5102006;28;1601;-59
2021/01/04 00:52:42;;;;;;;;;;;;;;;19.79;56.14;101162.22;5115246;28;1881;-63
2021/01/04 00:55:37;;;;;;;;;;;;;;;19.78;56.02;101148.97;5115537;28;769;-64
2021/01/04 00:58:12;;;;;;;;;;;;;;;19.79;56.11;101135.41;5098326;28;1313;-64
2021/01/04 01:00:39;;;;;;;;;;;;;;;19.81;57.11;101143.31;5115177;28;850;-63
2021/01/04 01:03:04;;;;;;;;;;;;;;;19.83;56.71;101131.47;5115350;28;1576;-64
2021/01/04 01:05:36;;;;;;;;;;;;;;;19.80;57.17;101130.91;5135681;28;960;-63
2021/01/04 01:08:13;;;;;;;;;;;;;;;19.77;57.00;101109.69;5135068;27;1627;-59
2021/01/04 01:10:42;;;;;;;;;;;;;;;19.79;57.20;101097.81;5132272;28;1214;-64
2021/01/04 01:13:21;;;;;;;;;;;;;;;19.77;57.16;101115.06;5097074;28;1967;-63
2021/01/04 01:16:05;;;;;;;;;;;;;;;19.77;57.06;101094.44;5095443;28;1668;-59
2021/01/04 01:18:34;;;;;;;;;;;;;;;19.81;57.20;101098.53;5114890;28;1506;-64
2021/01/04 01:21:02;;;;;;;;;;;;;;;19.78;57.42;101112.25;5099880;28;1664;-59
2021/01/04 01:23:27;;;;;;;;;;;;;;;19.78;57.50;101106.88;5094855;28;837;-63
2021/01/04 01:26:04;;;;;;;;;;;;;;;19.77;57.23;101117.72;5094660;28;848;-64
2021/01/04 01:28:43;;;;;;;;;;;;;;;19.74;57.11;101118.84;5094673;28;729;-59
2021/01/04 01:31:21;;;;;;;;;;;;;;;19.71;57.20;101111.06;5094699;28;1889;-59
2021/01/04 01:34:04;;;;;;;;;;;;;;;19.71;57.17;101099.44;5094805;28;829;-61
2021/01/04 01:36:39;;;;;;;;;;;;;;;19.70;57.21;101114.69;5094717;28;772;-59
2021/01/04 01:39:22;;;;;;;;;;;;;;;19.70;57.10;101109.34;5094827;28;842;-64
2021/01/04 01:42:00;;;;;;;;;;;;;;;19.66;57.07;101097.16;5094573;28;829;-59
2021/01/04 01:44:31;;;;;;;;;;;;;;;19.67;57.09;101091.66;5102849;28;1538;-59
2021/01/04 01:47:34;;;;;;;;;;;;;;;19.66;56.98;101097.16;5096599;28;1270;-64
2021/01/04 01:50:02;;;;;;;;;;;;;;;19.63;56.95;101082.16;5052544;28;1190;-59
2021/01/04 01:52:46;;;;;;;;;;;;;;;19.64;57.09;101109.88;5052587;28;1890;-59
2021/01/04 01:55:25;;;;;;;;;;;;;;;19.62;57.10;101109.16;5090129;28;1047;-64
2021/01/04 01:58:00;;;;;;;;;;;;;;;19.60;56.83;101084.28;5087975;28;1629;-64
2021/01/04 02:00:31;;;;;;;;;;;;;;;19.60;56.87;101081.59;5074306;28;856;-59
2021/01/04 02:02:56;;;;;;;;;;;;;;;19.60;56.75;101087.81;5056368;28;1357;-59
2021/01/04 02:05:37;;;;;;;;;;;;;;;19.59;56.95;101096.81;5074158;28;733;-64
2021/01/04 02:08:08;;;;;;;;;;;;;;;19.59;56.75;101087.94;5082356;28;1669;-64
2021/01/04 02:10:34;;;;;;;;;;;;;;;19.61;56.93;101089.50;5114458;28;1321;-64
2021/01/04 02:13:22;;;;;;;;;;;;;;;19.62;56.91;101099.25;5114615;28;1914;-63
2021/01/04 02:15:53;;;;;;;;;;;;;;;19.63;56.78;101092.06;5114736;28;824;-64
2021/01/04 02:18:37;;;;;;;;;;;;;;;19.62;56.49;101075.13;5115116;28;784;-63
2021/01/04 02:21:05;;;;;;;;;;;;;;;19.65;56.21;101068.63;5117979;28;785;-63
2021/01/04 02:23:40;;;;;;;;;;;;;;;19.61;56.10;101067.19;5100203;28;1633;-59
2021/01/04 02:26:14;;;;;;;;;;;;;;;19.63;56.54;101054.50;5117709;28;1618;-63
2021/01/04 02:28:46;;;;;;;;;;;;;;;19.60;56.82;101065.50;5117961;28;795;-58
2021/01/04 02:31:11;;;;;;;;;;;;;;;19.62;56.64;101064.38;5117949;28;1886;-64
2021/01/04 02:33:37;;;;;;;;;;;;;;;19.60;56.58;101065.50;5118106;28;855;-64
2021/01/04 02:36:02;;;;;;;;;;;;;;;19.62;56.57;101047.44;5117970;28;855;-63
2021/01/04 02:38:32;;;;;;;;;;;;;;;19.62;56.31;101048.28;5108101;28;1577;-70
2021/01/04 02:40:58;;;;;;;;;;;;;;;19.70;56.25;101044.94;5097319;28;1079;-58
2021/01/04 02:43:23;;;;;;;;;;;;;;;19.70;56.47;101044.09;5098220;28;1574;-59
2021/01/04 02:45:48;;;;;;;;;;;;;;;19.71;56.46;101046.66;5100246;28;1655;-60
2021/01/04 02:48:20;;;;;;;;;;;;;;;19.69;56.42;101045.91;5095873;28;1218;-59
2021/01/04 02:50:49;;;;;;;;;;;;;;;19.71;56.65;101037.75;5100059;28;1372;-59
2021/01/04 02:53:23;;;;;;;;;;;;;;;19.69;56.31;101027.13;5103517;28;1893;-59
2021/01/04 02:56:15;;;;;;;;;;;;;;;19.65;56.28;101029.22;5106170;28;1428;-59
2021/01/04 02:58:59;;;;;;;;;;;;;;;19.60;56.22;101022.59;5081254;28;1520;-59
2021/01/04 03:01:39;;;;;;;;;;;;;;;19.65;55.91;101028.38;5089558;23;1993;-46
2021/01/04 03:04:17;;;;;;;;;;;;;;;19.59;56.17;101031.59;5044977;28;1905;-47
2021/01/04 03:06:42;;;;;;;;;;;;;;;19.54;55.96;101034.69;5058744;28;1423;-46
2021/01/04 03:09:08;;;;;;;;;;;;;;;19.54;55.99;101044.56;5053261;28;1321;-47
2021/01/04 03:11:34;;;;;;;;;;;;;;;19.53;55.86;101034.81;5071053;23;3704;-64
2021/01/04 03:14:04;;;;;;;;;;;;;;;19.54;55.77;101036.53;5055756;28;1410;-64
2021/01/04 03:16:35;;;;;;;;;;;;;;;19.48;56.54;101030.69;5053457;28;1365;-59
2021/01/04 03:19:04;;;;;;;;;;;;;;;19.18;58.03;101025.25;5046351;28;1235;-59
2021/01/04 03:21:30;;;;;;;;;;;;;;;19.05;58.57;101023.63;5053374;28;1161;-64
2021/01/04 03:23:57;;;;;;;;;;;;;;;19.03;58.45;101022.91;5055952;28;1222;-59
2021/01/04 03:26:24;;;;;;;;;;;;;;;18.95;59.08;101014.66;5056462;28;1371;-64
2021/01/04 03:28:50;;;;;;;;;;;;;;;18.92;58.92;101017.63;5053404;28;1331;-63
2021/01/04 03:31:15;;;;;;;;;;;;;;;18.93;58.93;101024.66;5056108;28;1953;-64
2021/01/04 03:33:40;;;;;;;;;;;;;;;18.89;59.14;101012.50;5056060;28;1457;-59
2021/01/04 03:36:06;;;;;;;;;;;;;;;18.85;59.34;101006.56;5054827;28;1164;-61
2021/01/04 03:38:32;;;;;;;;;;;;;;;18.87;59.12;100998.38;5055433;28;1504;-64
2021/01/04 03:40:58;;;;;;;;;;;;;;;18.86;59.52;100994.00;5055555;28;1408;-59
2021/01/04 03:43:23;;;;;;;;;;;;;;;18.83;59.85;100999.63;5037597;28;1336;-64
2021/01/04 03:45:49;;;;;;;;;;;;;;;18.84;60.19;101001.31;5055446;28;1428;-59
2021/01/04 03:48:14;;;;;;;;;;;;;;;18.85;60.18;101005.72;5055268;28;1313;-59
2021/01/04 03:50:40;;;;;;;;;;;;;;;18.79;59.71;100996.34;5037612;28;1346;-64
2021/01/04 03:53:05;;;;;;;;;;;;;;;18.80;60.38;100994.50;5055297;28;1882;-59
2021/01/04 03:55:30;;;;;;;;;;;;;;;18.76;60.05;100987.69;5037579;28;1365;-64
2021/01/04 03:57:56;;;;;;;;;;;;;;;18.78;60.06;100999.13;5057013;28;1464;-59
2021/01/04 04:00:22;;;;;;;;;;;;;;;18.74;60.28;100976.25;5056241;28;1390;-59
2021/01/04 04:02:48;;;;;;;;;;;;;;;18.73;60.35;100987.97;5073985;28;1353;-64
2021/01/04 04:05:14;;;;;;;;;;;;;;;18.75;60.54;100994.03;5075542;28;873;-64
2021/01/04 04:07:40;;;;;;;;;;;;;;;18.76;60.62;101003.75;5075443;28;888;-59
2021/01/04 04:10:05;;;;;;;;;;;;;;;18.72;60.30;100999.63;5075490;28;757;-64
2021/01/04 04:12:31;;;;;;;;;;;;;;;18.73;60.31;101004.03;5076272;28;1906;-63
2021/01/04 04:14:56;;;;;;;;;;;;;;;18.66;60.73;101001.88;5090083;28;1567;-64
2021/01/04 04:17:21;;;;;;;;;;;;;;;18.71;61.01;101011.34;5095660;28;754;-59
2021/01/04 04:19:48;;;;;;;;;;;;;;;18.73;60.99;101004.03;5095759;28;751;-64
2021/01/04 04:22:14;;;;;;;;;;;;;;;18.71;62.32;101014.03;5095434;28;800;-58
2021/01/04 04:24:40;;;;;;;;;;;;;;;18.73;62.50;101001.34;5095554;28;789;-59
2021/01/04 04:27:06;;;;;;;;;;;;;;;18.67;62.19;101008.91;5060361;28;1676;-59
2021/01/04 04:29:32;;;;;;;;;;;;;;;18.71;62.06;101019.38;5075181;28;777;-59
2021/01/04 04:31:57;;;;;;;;;;;;;;;18.67;62.24;101008.06;5075027;28;1889;-64
2021/01/04 04:34:22;;;;;;;;;;;;;;;18.63;62.77;101006.63;5075294;28;761;-59
2021/01/04 04:36:48;;;;;;;;;;;;;;;18.64;62.80;101002.94;5075169;28;839;-63
2021/01/04 04:39:14;;;;;;;;;;;;;;;18.63;62.46;100996.75;5074903;28;887;-59
2021/01/04 04:41:41;;;;;;;;;;;;;;;18.65;62.46;100989.44;5071820;28;1594;-59
2021/01/04 04:44:07;;;;;;;;;;;;;;;18.64;62.75;100987.75;5095135;28;831;-59
2021/01/04 04:46:51;;;;;;;;;;;;;;;18.63;62.52;100986.03;5086529;28;1487;-64
2021/01/04 04:49:28;;;;;;;;;;;;;;;18.60;62.88;100970.22;5073666;28;1080;-64
2021/01/04 04:52:03;;;;;;;;;;;;;;;18.64;62.83;100981.50;5073585;28;1952;-59
2021/01/04 04:55:01;;;;;;;;;;;;;;;18.63;63.58;100979.84;5074704;28;1409;-64
2021/01/04 04:57:45;;;;;;;;;;;;;;;18.63;63.12;100979.84;5062640;28;1088;-64
2021/01/04 05:00:25;;;;;;;;;;;;;;;18.66;63.25;100988.47;5076374;28;1275;-59
2021/01/04 05:02:54;;;;;;;;;;;;;;;18.65;63.25;100989.44;5070464;28;1453;-59
2021/01/04 05:05:19;;;;;;;;;;;;;;;18.60;63.12;100991.66;5069702;28;1210;-63
2021/01/04 05:07:51;;;;;;;;;;;;;;;18.61;63.35;100989.81;5073294;28;1190;-64
2021/01/04 05:10:16;;;;;;;;;;;;;;;18.59;63.50;100989.94;5073184;28;1230;-63
2021/01/04 05:12:47;;;;;;;;;;;;;;;18.57;63.44;100973.16;5073569;28;1909;-59
2021/01/04 05:15:21;;;;;;;;;;;;;;;18.58;63.74;100963.28;5073400;28;1134;-59
2021/01/04 05:18:05;;;;;;;;;;;;;;;18.60;63.06;100972.03;5073436;28;1265;-58
2021/01/04 05:20:45;;;;;;;;;;;;;;;18.57;62.94;100981.19;5071407;28;1084;-59
2021/01/04 05:23:29;;;;;;;;;;;;;;;18.56;63.19;100983.97;5055654;28;1202;-64
2021/01/04 05:26:24;;;;;;;;;;;;;;;18.55;63.27;100983.16;5073405;28;1198;-63
2021/01/04 05:29:02;;;;;;;;;;;;;;;18.54;63.46;100976.06;5018537;28;1305;-63
2021/01/04 05:31:41;;;;;;;;;;;;;;;18.55;64.29;100977.78;5073162;28;1963;-64
2021/01/04 05:34:08;;;;;;;;;;;;;;;18.57;64.05;100978.50;5073174;28;1345;-59
2021/01/04 05:36:43;;;;;;;;;;;;;;;18.56;63.96;100962.56;5074402;28;749;-59
2021/01/04 05:39:34;;;;;;;;;;;;;;;18.52;63.99;100972.66;5074266;28;820;-63
2021/01/04 05:42:06;;;;;;;;;;;;;;;18.47;63.79;100972.22;5050877;28;1235;-64
2021/01/04 05:44:39;;;;;;;;;;;;;;;18.49;63.48;100978.31;5074128;28;1606;-65
2021/01/04 05:47:24;;;;;;;;;;;;;;;18.46;64.22;100975.88;5073870;28;1566;-64
2021/01/04 05:49:56;;;;;;;;;;;;;;;18.45;63.80;100982.22;5073797;28;1522;-64
2021/01/04 05:52:21;;;;;;;;;;;;;;;18.41;63.41;100959.34;5074473;28;1885;-64
2021/01/04 05:54:47;;;;;;;;;;;;;;;18.42;63.45;100961.03;5076942;28;1499;-59
2021/01/04 05:57:17;;;;;;;;;;;;;;;18.48;63.57;100965.88;5077285;28;1574;-64
2021/01/04 05:59:53;;;;;;;;;;;;;;;18.53;64.07;100968.19;5077954;28;1505;-68
2021/01/04 06:02:23;;;;;;;;;;;;;;;18.52;63.89;100964.63;5077516;28;1662;-59
2021/01/04 06:04:48;;;;;;;;;;;;;;;18.48;63.27;100949.81;5077992;28;852;-67
2021/01/04 06:07:14;;;;;;;;;;;;;;;18.53;63.07;100960.16;5077341;28;1639;-59
2021/01/04 06:09:39;;;;;;;;;;;;;;;18.49;63.37;100962.22;5077749;28;1641;-64
2021/01/04 06:12:05;;;;;;;;;;;;;;;18.39;63.05;100967.50;5077271;28;1980;-64
2021/01/04 06:14:35;;;;;;;;;;;;;;;18.33;63.79;100967.16;5077575;28;1664;-65
2021/01/04 06:17:05;;;;;;;;;;;;;;;18.38;63.50;100967.63;5077591;28;927;-65
2021/01/04 06:19:32;;;;;;;;;;;;;;;18.36;63.24;100964.22;5076741;28;812;-64
2021/01/04 06:22:00;;;;;;;;;;;;;;;18.37;62.86;100968.59;5077368;28;1198;-59
2021/01/04 06:24:32;;;;;;;;;;;;;;;18.37;63.35;100965.94;5077477;28;769;-65
2021/01/04 06:26:59;;;;;;;;;;;;;;;18.27;63.16;100980.06;5077530;28;804;-66
2021/01/04 06:29:30;;;;;;;;;;;;;;;18.34;62.72;100968.84;5075446;28;1401;-64
2021/01/04 06:31:58;;;;;;;;;;;;;;;18.35;62.69;100968.72;5058113;28;1963;-64
2021/01/04 06:34:26;;;;;;;;;;;;;;;18.42;62.94;100972.63;5060379;28;1563;-57
2021/01/04 06:36:58;;;;;;;;;;;;;;;18.44;62.54;100970.66;5078660;28;1246;-78
2021/01/04 06:39:26;;;;;;;;;;;;;;;18.53;63.26;100977.06;5076868;28;1246;-57
2021/01/04 06:41:52;;;;;;;;;;;;;;;18.51;62.75;100965.63;5073976;28;1304;-72
2021/01/04 06:44:23;;;;;;;;;;;;;;;18.51;63.46;100964.78;5076948;28;800;-64
2021/01/04 06:47:07;;;;;;;;;;;;;;;18.49;62.98;100967.59;5076001;28;1662;-64
2021/01/04 06:49:51;;;;;;;;;;;;;;;18.45;63.16;100960.78;5075257;28;1382;-59
2021/01/04 06:52:28;;;;;;;;;;;;;;;18.44;63.40;100959.06;5075227;28;1948;-59
2021/01/04 06:54:57;;;;;;;;;;;;;;;18.40;63.35;100955.81;5076981;28;1443;-61
2021/01/04 06:57:22;;;;;;;;;;;;;;;18.47;62.99;100953.47;5058933;28;1413;-59
2021/01/04 07:00:02;;;;;;;;;;;;;;;18.49;65.49;100956.88;5076552;28;1570;-63
2021/01/04 07:02:47;;;;;;;;;;;;;;;18.54;65.34;100938.56;5076752;28;1421;-59
2021/01/04 07:05:12;;;;;;;;;;;;;;;18.61;65.90;100938.94;5056958;28;1340;-73
2021/01/04 07:07:41;;;;;;;;;;;;;;;18.60;66.14;100954.16;5076642;28;1740;-62
2021/01/04 07:10:26;;;;;;;;;;;;;;;18.60;66.01;100951.50;5076333;28;1570;-57
2021/01/04 07:13:07;;;;;;;;;;;;;;;18.59;66.00;100952.44;5075523;28;1905;-64
2021/01/04 07:15:33;;;;;;;;;;;;;;;18.57;66.28;100934.81;5056270;28;738;-64
2021/01/04 07:17:58;;;;;;;;;;;;;;;18.62;66.74;100952.22;5088608;28;1594;-64
2021/01/04 07:20:42;;;;;;;;;;;;;;;18.66;66.85;100950.97;5096657;28;755;-58
2021/01/04 07:23:26;;;;;;;;;;;;;;;18.65;66.44;100945.72;5096139;28;902;-59
2021/01/04 07:26:18;;;;;;;;;;;;;;;18.68;66.98;100945.47;5084034;28;1645;-62
2021/01/04 07:28:46;;;;;;;;;;;;;;;18.65;66.92;100948.41;5074598;28;1597;-57
2021/01/04 07:31:17;;;;;;;;;;;;;;;18.72;66.88;100956.78;5087754;28;1914;-59
2021/01/04 07:33:51;;;;;;;;;;;;;;;18.67;68.41;100943.78;5076123;28;1609;-59
2021/01/04 07:36:27;;;;;;;;;;;;;;;18.67;68.16;100938.41;5076123;28;784;-63
2021/01/04 07:39:11;;;;;;;;;;;;;;;18.66;67.97;100926.88;5076022;28;829;-63
2021/01/04 07:41:36;;;;;;;;;;;;;;;18.65;67.92;100930.50;5076089;28;820;-59
2021/01/04 07:44:13;;;;;;;;;;;;;;;18.66;67.89;100920.63;5084007;28;1645;-59
2021/01/04 07:46:57;;;;;;;;;;;;;;;18.67;67.82;100922.34;5093841;28;1530;-63
2021/01/04 07:49:41;;;;;;;;;;;;;;;18.77;67.93;100919.75;5095669;28;1661;-59
2021/01/04 07:52:15;;;;;;;;;;;;;;;18.87;68.70;100918.00;5095990;28;1955;-65
2021/01/04 07:54:47;;;;;;;;;;;;;;;18.90;68.23;100907.03;5093134;28;1151;-59
2021/01/04 07:57:27;;;;;;;;;;;;;;;18.90;68.49;100933.84;5075843;28;887;-64
2021/01/04 07:59:53;;;;;;;;;;;;;;;18.87;68.83;100900.09;5075592;28;769;-64
2021/01/04 08:02:37;;;;;;;;;;;;;;;18.90;68.37;100895.44;5076679;28;1696;-64
2021/01/04 08:05:16;;;;;;;;;;;;;;;18.93;67.75;100911.28;5095252;28;1510;-62
2021/01/04 08:07:41;;;;;;;;;;;;;;;19.00;67.20;100889.19;5089535;28;1578;-59
2021/01/04 08:10:20;;;;;;;;;;;;;;;19.03;67.35;100886.22;5081453;28;1578;-59
2021/01/04 08:13:15;;;;;;;;;;;;;;;19.12;67.29;100899.81;5081037;28;1976;-62
2021/01/04 08:15:50;;;;;;;;;;;;;;;19.18;67.02;100907.31;5091378;28;1578;-66
2021/01/04 08:18:17;;;;;;;;;;;;;;;19.22;66.41;100906.09;5068497;28;1472;-60
2021/01/04 08:20:45;;;;;;;;;;;;;;;19.24;66.41;100899.59;5079402;28;1550;-61
2021/01/04 08:23:35;;;;;;;;;;;;;;;19.23;66.13;100897.03;5084059;28;1403;-60
2021/01/04 08:26:10;;;;;;;;;;;;;;;19.28;65.71;100890.31;5079991;28;1738;-66
2021/01/04 08:28:35;;;;;;;;;;;;;;;19.34;66.33;100901.47;5085835;28;1404;-60
2021/01/04 08:31:04;;;;;;;;;;;;;;;19.44;65.49;100884.44;5085690;28;1339;-62
2021/01/04 08:33:40;;;;;;;;;;;;;;;19.39;65.79;100872.41;5079734;28;1960;-60
2021/01/04 08:36:15;;;;;;;;;;;;;;;19.36;65.86;100876.22;5075319;28;738;-59
2021/01/04 08:38:40;;;;;;;;;;;;;;;19.32;66.93;100896.25;5089416;28;1333;-63
2021/01/04 08:41:08;;;;;;;;;;;;;;;19.28;67.21;100865.34;5094176;28;1164;-60
2021/01/04 08:43:38;;;;;;;;;;;;;;;19.27;67.55;100850.22;5095282;28;733;-61
2021/01/04 08:46:11;;;;;;;;;;;;;;;19.41;65.93;100863.25;5074283;28;1697;-67
2021/01/04 08:48:37;;;;;;;;;;;;;;;19.70;65.32;100862.50;5078001;28;1523;-61
2021/01/04 08:51:05;;;;;;;;;;;;;;;19.88;64.24;100859.19;5076434;28;1649;-61
2021/01/04 08:53:30;;;;;;;;;;;;;;;19.90;63.92;100841.94;5074730;28;1945;-61
2021/01/04 08:56:26;;;;;;;;;;;;;;;20.07;63.78;100848.44;5074936;28;812;-63
2021/01/04 08:58:52;;;;;;;;;;;;;;;20.31;63.60;100852.53;5067174;28;1516;-63
2021/01/04 09:01:25;;;;;;;;;;;;;;;20.40;63.66;100833.75;5083255;28;1459;-60
2021/01/04 09:04:01;;;;;;;;;;;;;;;20.55;62.77;100842.22;5091930;28;1183;-62
2021/01/04 09:06:37;;;;;;;;;;;;;;;20.65;62.61;100820.72;5090137;28;1142;-61
2021/01/04 09:09:18;;;;;;;;;;;;;;;20.73;62.74;100823.53;5080195;28;1247;-62
2021/01/04 09:12:09;;;;;;;;;;;;;;;20.72;62.68;100815.63;5073949;28;1985;-62
2021/01/04 09:14:58;;;;;;;;;;;;;;;20.78;62.71;100820.41;5071879;28;1230;-62
2021/01/04 09:17:29;;;;;;;;;;;;;;;20.73;62.82;100812.78;5070777;28;1334;-62
2021/01/04 09:20:07;;;;;;;;;;;;;;;20.69;62.71;100822.16;5074084;28;1203;-62
2021/01/04 09:22:32;;;;;;;;;;;;;;;20.61;62.98;100796.00;5072491;28;1187;-62
2021/01/04 09:24:57;;;;;;;;;;;;;;;20.59;62.86;100822.16;5056399;28;1416;-62
2021/01/04 09:27:30;;;;;;;;;;;;;;;20.52;63.19;100799.50;5074010;28;1357;-62
2021/01/04 09:29:59;;;;;;;;;;;;;;;20.45;64.38;100793.88;5058557;28;1316;-62
2021/01/04 09:32:42;;;;;;;;;;;;;;;20.29;63.70;100779.34;5060724;28;1901;-67
2021/01/04 09:35:09;;;;;;;;;;;;;;;20.40;63.37;100792.59;5078521;28;722;-60
2021/01/04 09:37:36;;;;;;;;;;;;;;;20.40;63.50;100789.91;5056774;28;1198;-62
2021/01/04 09:40:04;;;;;;;;;;;;;;;20.42;63.90;100769.13;5057443;28;1215;-62
2021/01/04 09:42:30;;;;;;;;;;;;;;;20.44;63.18;100761.78;5074658;28;1358;-62
2021/01/04 09:45:06;;;;;;;;;;;;;;;20.33;63.46;100767.31;5076635;28;1397;-61
2021/01/04 09:47:35;;;;;;;;;;;;;;;20.26;63.35;100750.94;5076699;28;1307;-62
2021/01/04 09:50:03;;;;;;;;;;;;;;;20.30;63.33;100749.66;5077178;28;1665;-59
2021/01/04 09:52:37;;;;;;;;;;;;;;;20.33;63.38;100743.13;5077422;28;1951;-61
2021/01/04 09:55:06;;;;;;;;;;;;;;;20.26;63.78;100740.19;5077473;28;1530;-62
2021/01/04 09:57:35;;;;;;;;;;;;;;;20.21;64.17;100731.72;5078161;28;805;-62
2021/01/04 10:00:00;;;;;;;;;;;;;;;20.16;63.52;100729.47;5078077;28;792;-61
2021/01/04 10:02:28;;;;;;;;;;;;;;;20.15;63.95;100724.25;5077168;28;1348;-60
2021/01/04 10:04:53;;;;;;;;;;;;;;;20.00;63.90;100710.44;5077050;28;1343;-56
2021/01/04 10:07:26;;;;;;;;;;;;;;;19.93;63.92;100714.66;5077777;28;851;-62
2021/01/04 10:09:52;;;;;;;;;;;;;;;19.81;64.83;100704.06;5077938;28;852;-64
2021/01/04 10:12:20;;;;;;;;;;;;;;;19.75;64.71;100696.59;5060228;28;1961;-61
2021/01/04 10:14:46;;;;;;;;;;;;;;;19.74;64.99;100689.53;5077603;28;1577;-66
2021/01/04 10:17:12;;;;;;;;;;;;;;;19.77;64.89;100691.09;5077681;28;1590;-60
2021/01/04 10:19:44;;;;;;;;;;;;;;;19.77;64.80;100707.19;5077896;28;813;-70
2021/01/04 10:22:29;;;;;;;;;;;;;;;19.79;64.45;100695.31;5078141;28;773;-60
2021/01/04 10:25:01;;;;;;;;;;;;;;;19.82;65.03;100689.69;5076788;28;1619;-55
2021/01/04 10:27:28;;;;;;;;;;;;;;;19.80;65.30;100691.66;5076847;28;1363;-58
2021/01/04 10:29:53;;;;;;;;;;;;;;;19.89;64.92;100689.94;5076705;28;1421;-59
2021/01/04 10:32:22;;;;;;;;;;;;;;;19.86;65.34;100674.97;5076734;28;1894;-57
2021/01/04 10:34:49;;;;;;;;;;;;;;;19.83;65.86;100682.47;5077624;28;751;-58
2021/01/04 10:37:38;;;;;;;;;;;;;;;19.81;65.98;100662.97;5077518;28;745;-59
2021/01/04 10:40:06;;;;;;;;;;;;;;;19.86;65.69;100661.56;5072944;28;1219;-63
2021/01/04 10:42:31;;;;;;;;;;;;;;;19.83;65.29;100669.88;5076150;28;1347;-59
2021/01/04 10:45:02;;;;;;;;;;;;;;;19.80;65.70;100654.09;5076481;28;1705;-60
2021/01/04 10:47:30;;;;;;;;;;;;;;;19.77;65.90;100657.03;5076745;28;1368;-59
2021/01/04 10:50:12;;;;;;;;;;;;;;;19.77;64.92;100643.63;5074107;28;1359;-64
2021/01/04 10:52:37;;;;;;;;;;;;;;;19.68;65.98;100647.16;5074881;28;1949;-62
2021/01/04 10:55:03;;;;;;;;;;;;;;;19.68;65.85;100649.84;5076300;28;1289;-65
2021/01/04 10:57:28;;;;;;;;;;;;;;;19.69;66.21;100638.09;5067244;28;1407;-58
2021/01/04 10:59:57;;;;;;;;;;;;;;;19.76;65.64;100636.59;5076531;28;1495;-59
2021/01/04 11:02:22;;;;;;;;;;;;;;;19.77;65.36;100632.06;5076913;28;1312;-59
2021/01/04 11:04:53;;;;;;;;;;;;;;;19.78;65.75;100629.25;5075999;28;1522;-60
2021/01/04 11:07:20;;;;;;;;;;;;;;;19.80;67.21;100626.41;5077270;28;785;-59
2021/01/04 11:09:46;;;;;;;;;;;;;;;19.69;67.43;100611.28;5076656;28;750;-60
2021/01/04 11:12:22;;;;;;;;;;;;;;;19.59;65.63;100602.41;5058909;28;1979;-63
2021/01/04 11:14:52;;;;;;;;;;;;;;;19.55;65.56;100599.16;5076284;28;1514;-64
2021/01/04 11:17:20;;;;;;;;;;;;;;;19.54;66.27;100610.88;5076589;28;1398;-60
2021/01/04 11:19:46;;;;;;;;;;;;;;;19.62;66.19;100610.19;5075541;28;1246;-63
2021/01/04 11:22:21;;;;;;;;;;;;;;;19.59;66.68;100597.03;5058827;28;1314;-65
2021/01/04 11:24:46;;;;;;;;;;;;;;;19.53;66.95;100584.22;5075816;28;1305;-57
2021/01/04 11:27:12;;;;;;;;;;;;;;;19.45;66.30;100592.97;5076622;28;754;-60
2021/01/04 11:29:38;;;;;;;;;;;;;;;19.41;65.44;100589.72;5076225;28;1303;-67
2021/01/04 11:32:03;;;;;;;;;;;;;;;19.42;67.27;100580.69;5075999;28;1918;-56
2021/01/04 11:34:28;;;;;;;;;;;;;;;19.46;67.73;100586.63;5076558;28;738;-62
2021/01/04 11:36:53;;;;;;;;;;;;;;;19.50;67.92;100595.22;5076403;28;943;-57
2021/01/04 11:39:20;;;;;;;;;;;;;;;19.49;67.76;100578.28;5075834;28;1384;-63
2021/01/04 11:41:46;;;;;;;;;;;;;;;19.54;67.57;100583.22;5075620;28;1407;-64
2021/01/04 11:44:11;;;;;;;;;;;;;;;19.44;68.02;100557.25;5075701;28;1183;-63
2021/01/04 11:46:36;;;;;;;;;;;;;;;19.51;67.82;100562.06;5075516;28;1427;-60
2021/01/04 11:49:02;;;;;;;;;;;;;;;19.47;68.20;100562.31;5075931;28;842;-58
2021/01/04 11:51:27;;;;;;;;;;;;;;;19.51;67.84;100567.41;5074619;28;1889;-66
2021/01/04 11:53:53;;;;;;;;;;;;;;;19.47;67.66;100561.47;5074359;28;1415;-58
2021/01/04 11:56:19;;;;;;;;;;;;;;;19.52;67.64;100566.41;5075000;28;1361;-58
2021/01/04 11:58:46;;;;;;;;;;;;;;;19.47;67.77;100565.00;5075701;28;1475;-63
2021/01/04 12:01:11;;;;;;;;;;;;;;;19.47;67.92;100556.13;5075832;28;1436;-58
2021/01/04 12:03:37;;;;;;;;;;;;;;;19.46;68.60;100582.09;5076161;28;733;-58
2021/01/04 12:06:02;;;;;;;;;;;;;;;19.53;68.81;100560.91;5074274;28;1526;-58
2021/01/04 12:08:27;;;;;;;;;;;;;;;19.49;74.78;100575.59;5074987;28;1376;-66
2021/01/04 12:10:53;;;;;;;;;;;;;;;19.60;72.31;100563.88;5075121;28;1375;-58
2021/01/04 12:13:18;;;;;;;;;;;;;;;19.62;71.81;100554.69;5074898;28;1980;-60
2021/01/04 12:15:44;;;;;;;;;;;;;;;19.61;71.34;100552.16;5074633;28;1394;-58
2021/01/04 12:18:09;;;;;;;;;;;;;;;19.57;70.88;100548.06;5074525;28;1534;-64
2021/01/04 12:20:34;;;;;;;;;;;;;;;19.59;71.12;100554.97;5074070;28;1459;-58
2021/01/04 12:23:00;;;;;;;;;;;;;;;19.55;71.57;100550.03;5075281;28;1407;-60
2021/01/04 12:25:25;;;;;;;;;;;;;;;19.49;71.62;100546.09;5057004;28;1389;-60
2021/01/04 12:27:51;;;;;;;;;;;;;;;19.47;75.40;100535.50;5074867;28;1384;-61
2021/01/04 12:30:16;;;;;;;;;;;;;;;19.46;74.08;100531.16;5074866;28;1327;-56
2021/01/04 12:32:42;;;;;;;;;;;;;;;19.47;73.51;100538.19;5075107;28;1890;-59
2021/01/04 12:35:09;;;;;;;;;;;;;;;19.48;72.92;100521.13;5074976;28;829;-64
2021/01/04 12:37:34;;;;;;;;;;;;;;;19.46;72.56;100522.25;5073804;28;1433;-61
2021/01/04 12:39:59;;;;;;;;;;;;;;;19.43;72.02;100527.91;5073866;28;1309;-58
2021/01/04 12:42:24;;;;;;;;;;;;;;;19.39;71.05;100519.28;5074466;28;1446;-62
2021/01/04 12:44:50;;;;;;;;;;;;;;;19.35;70.96;100515.22;5073956;28;1306;-62
2021/01/04 12:47:15;;;;;;;;;;;;;;;19.27;70.91;100529.31;5074110;28;1496;-62
2021/01/04 12:49:43;;;;;;;;;;;;;;;19.28;71.09;100514.13;5073989;28;1234;-63
2021/01/04 12:52:08;;;;;;;;;;;;;;;19.29;71.01;100515.78;5074100;28;1897;-62
2021/01/04 12:54:34;;;;;;;;;;;;;;;19.25;71.26;100525.94;5074599;28;1369;-62
2021/01/04 12:57:04;;;;;;;;;;;;;;;19.22;71.45;100517.38;5074719;28;1286;-62
2021/01/04 12:59:29;;;;;;;;;;;;;;;19.23;71.11;100527.09;5074170;28;1380;-60
2021/01/04 13:01:55;;;;;;;;;;;;;;;19.17;71.34;100511.56;5073978;28;1427;-62
2021/01/04 13:04:27;;;;;;;;;;;;;;;19.16;71.33;100531.31;5073111;28;1395;-61
2021/01/04 13:06:53;;;;;;;;;;;;;;;19.16;71.08;100536.69;5065512;28;1198;-61
2021/01/04 13:09:19;;;;;;;;;;;;;;;19.13;70.93;100523.56;5074284;28;1218;-62
2021/01/04 13:11:46;;;;;;;;;;;;;;;19.15;71.21;100526.97;5074341;28;1973;-58